• Join FlightAware (Why Join?)
  • Login
  • US Flag 
11:57AM EDT


 

Airport Tracker/Info


-or-


 

Live Flight TrackerFlight Track Log ✈ N107US ✈ 01-May-2013 ✈ KPIT - KCLT

Flight Track Log - Related Links

Times and Time Zones

All times are in EDT time to prevent confusion due to time zone crossing. See the N107US flight status page for this flight to view local times or setup timezone preferences in your user account.

Time Position Orientation Groundspeed Altitude Reporting Facility
EDT Latitude Longitude Course Direction KTS MPH feet Rate Location/Type
06:48AM 40.2775 -80.2778 189° South  Level FlightAware Approximate
06:48AM 40.3811 -80.1497 218° Southwest 274 315 5,600  Level Cleveland Center
06:49AM 40.1732 -80.3004 190° South  Level FlightAware Approximate
06:49AM 40.3019 -80.1503 180° South 286 329 8,600  Level Cleveland Center
06:50AM 40.0695 -80.3268 194° South  Level FlightAware Approximate
06:50AM 40.2208 -80.1997 205° Southwest 291 335 10,600  Level Cleveland Center
06:51AM 39.9671 -80.3610 194° South  Level FlightAware Approximate
06:51AM 40.1292 -80.2572 206° Southwest 335 386 12,100  Level Cleveland Center
06:52AM 39.8693 -80.4090 213° Southwest  Level FlightAware Approximate
06:52AM 40.0294 -80.3175 205° Southwest 374 430 14,500  Level Cleveland Center
06:53AM 39.7814 -80.4853 218° Southwest  Level FlightAware Approximate
06:53AM 39.9294 -80.3772 205° Southwest 392 451 16,600  Level Cleveland Center
06:54AM 39.8358 -80.4614 215° Southwest 406 467 18,600 1,980 Climbing Cleveland Center
06:55AM 39.7400 -80.5481 215° Southwest 417 480 20,600 1,740 Climbing Cleveland Center
06:56AM 39.6147 -80.6606 215° Southwest 427 491 22,800 1,380 Climbing Indianapolis Center
06:57AM 39.5169 -80.7494 215° Southwest 429 494 24,000 1,140 Climbing Indianapolis Center
06:58AM 39.4136 -80.8400 214° Southwest 446 513 25,200 1,080 Climbing Indianapolis Center
07:00AM 39.3094 -80.9347 215° Southwest 456 525 26,300 1,380 Climbing Indianapolis Center
07:01AM 39.2028 -81.0283 214° Southwest 463 533 28,100 1,680 Climbing Indianapolis Center
07:02AM 39.0994 -81.1186 214° Southwest 452 520 29,800 900 Climbing Indianapolis Center
07:03AM 38.9767 -81.2272 215° Southwest 447 514 30,000 60 Climbing Indianapolis Center
07:04AM 38.8736 -81.3164 214° Southwest 447 514 30,000  Level Indianapolis Center
07:05AM 38.7697 -81.4061 214° Southwest 447 514 30,000  Level Indianapolis Center
07:06AM 38.6711 -81.4933 215° Southwest 448 516 30,000  Level Indianapolis Center
07:07AM 38.5769 -81.5725 213° Southwest 444 511 30,000  Level Indianapolis Center
07:08AM 38.4744 -81.6633 215° Southwest 441 507 30,000  Level Indianapolis Center
07:09AM 38.3458 -81.7572 210° Southwest 449 517 30,000  Level Indianapolis Center
07:10AM 38.2214 -81.7956 194° South 459 528 30,000  Level Indianapolis Center
07:11AM 38.0939 -81.8203 189° South 463 533 30,000  Level Indianapolis Center
07:12AM 37.9686 -81.8431 188° South 458 527 30,000 -60 Level Indianapolis Center
07:13AM 37.8411 -81.8683 189° South 463 533 29,900 -540 Descending Indianapolis Center
07:14AM 37.7067 -81.8933 188° South 460 529 29,000 -480 Descending Indianapolis Center
07:15AM 37.5789 -81.9172 188° South 461 531 29,000  Level Indianapolis Center
07:16AM 37.4489 -81.9411 188° South 466 536 29,000  Level Indianapolis Center
07:17AM 37.3194 -81.9653 188° South 467 537 29,000  Level Indianapolis Center
07:18AM 37.1886 -81.9903 189° South 471 542 29,000  Level Indianapolis Center
07:19AM 37.0586 -82.0142 188° South 470 541 29,000 -60 Level Indianapolis Center
07:20AM 36.9297 -82.0389 189° South 467 537 28,900 -600 Descending Indianapolis Center
07:21AM 36.7997 -82.0628 188° South 467 537 27,900 -1,020 Descending Indianapolis Center
07:21AM 36.7600 -82.0694 188° South 470 541 27,600 -1,020 Descending Atlanta Center
07:22AM 36.6164 -82.0964 189° South 470 541 26,600 -1,020 Descending Atlanta Center
07:23AM 36.4833 -82.1228 189° South 470 541 25,600 -1,020 Descending Atlanta Center
07:24AM 36.3575 -82.0819 165° South 468 539 24,600 -1,080 Descending Atlanta Center
07:25AM 36.2394 -82.0000 151° Southeast 475 547 23,500 -1,200 Descending Atlanta Center
07:26AM 36.1297 -81.9256 151° Southeast 459 528 22,200 -1,560 Descending Atlanta Center
07:27AM 36.0328 -81.8639 153° Southeast 414 476 20,400 -1,860 Descending Atlanta Center
07:28AM 35.9419 -81.8047 152° Southeast 377 434 18,500 -1,800 Descending Atlanta Center
07:29AM 35.8533 -81.7483 153° Southeast 368 423 16,800 -1,860 Descending Atlanta Center
07:30AM 35.7647 -81.6894 152° Southeast 368 423 14,800 -2,100 Descending Atlanta Center
07:31AM 35.7286 -81.6675 154° Southeast 352 405 13,900 -1,920 Descending Atlanta Center
07:31AM 35.6886 -81.6406 151° Southeast 357 411 12,900 -1,800 Descending Atlanta Center
07:32AM 35.6464 -81.6136 153° Southeast 338 389 12,100 -900 Descending Atlanta Center
07:32AM 35.6083 -81.5867 150° Southeast 346 398 12,000 -120 Descending Atlanta Center
07:33AM 35.5783 -81.5467 133° Southeast 305 351 12,000  Level Atlanta Center
07:33AM 35.5525 -81.5092 130° Southeast 309 356 12,000  Level Atlanta Center
07:34AM 35.5264 -81.4667 127° Southeast 290 334 12,000 -300 Level Atlanta Center
07:34AM 35.5008 -81.4317 132° Southeast 298 343 11,700 -1,140 Descending Atlanta Center
07:35AM 35.4747 -81.3892 127° Southeast 294 338 10,900 -1,500 Descending Atlanta Center
07:35AM 35.4511 -81.3517 128° Southeast 298 343 10,200 -1,680 Descending Atlanta Center
07:36AM 35.4208 -81.3094 131° Southeast 284 327 9,200 -1,200 Descending Atlanta Center
07:36AM 35.4014 -81.2767 126° Southeast 293 337 9,000 -240 Descending Atlanta Center
07:37AM 35.3669 -81.2297 132° Southeast 284 327 9,000  Level Atlanta Center
07:37AM 35.3494 -81.2022 128° Southeast 288 331 9,000  Level Atlanta Center
07:38AM 35.3172 -81.1525 128° Southeast 285 328 9,000  Level Atlanta Center
07:38AM 35.3000 -81.1300 133° Southeast 283 326 9,000  Level Atlanta Center
07:39AM 35.2653 -81.0803 131° Southeast 286 329 9,000  Level Atlanta Center
07:39AM 35.2381 -81.0711 165° South 277 319 9,000 -1,020 Level Atlanta Center
07:40AM 35.1794 -81.0683 178° South 294 338 8,000 -1,380 Descending Atlanta Center
07:41AM 35.0939 -81.0636 177° South 287 330 6,700 -960 Descending Atlanta Center
07:42AM 35.0289 -81.0533 173° South 254 292 6,100 -780 Descending Atlanta Center
07:43AM 34.9558 -81.0508 178° South 240 276 5,200 -600 Descending Atlanta Center
07:44AM 34.8889 -81.0431 175° South 240 276 5,000 -120 Descending Atlanta Center
07:45AM 34.8319 -81.0200 162° South 225 259 5,000  Level Atlanta Center
07:46AM 34.8558 -80.9708 59° Northeast 189 217 5,000  Level Atlanta Center
07:47AM 34.9094 -80.9436 23° Northeast 192 221 5,000  Level Atlanta Center
07:48AM 34.9575 -80.9494 354° North 193 222 5,000 -240 Level Atlanta Center
07:49AM 35.0097 -80.9525 357° North 170 196 4,600 -660 Descending Atlanta Center
07:50AM 35.0558 -80.9558 357° North 166 191 3,600 -1,020 Descending Atlanta Center